Latest Weather Forecast - Tuesday, 13th November 2018 (12 noon)

Date: Tuesday 13th November, 2018
Valid from: 12:00 noon to 6:00 pm
Synopsis: A lower level trough system is affecting the islands
Forecast: Fair, hazy and breezy; becoming occasionally cloudy with few scattered showers and chance of isolated thunderstorms
Weather Advisory/Warning:

None

Winds: Easterly at 25 - 35 km/h (15 to 22 mph)
Sea Conditions: Moderate in open water; swells 1.2 m – 2.5m, increasing
Marine 
Advisory/Warning:
Small craft operators and sea bathers should exercise caution for increasing wave heights
Tides:
High: 12:25 am 10:09 am  
Low: 05:51 pm 04:22 am

Aviation WX

[Source: ADDS]
METAR
TVSA 231500Z 07014KT 9999 FEW023 SCT080 28/21 Q1018 NOSIG =
TVSA 231100Z 2312/2412 07015KT 9999 SCT020 PROB30 TEMPO 2318/2324 SHRA BKN015
TAF
TVSA 231100Z 2312/2412 07015KT 9999 SCT020 PROB30 TEMPO 2318/2324 SHRA BKN015 =
SR / SS: 10:31 / 22:01 UTC (Sunrise Sunset 2019-01-23)